首页
METAR-TAF:

METAR-TAF

机场 :

卢布林, 波兰

纬度: 51-13-55N, 经度: 22-41-25E, 海拔: 203米

当前天气观测

该预报发布于33分钟前的00:00 UTC
风速6节,风向北转东北
温度 16°C
湿度 72%
气压 1019 hPa
能见度10公里或以上
1500米以下无云,无积雨云

METAR: EPLB 120000Z 02006KT CAVOK 16/11 Q1019

时间: 02:33 (00:33 UTC)

预报

该预报发布于1小时和3分钟前的23:30 UTC
预报有效从12日的 00点(UTC)到 12日的 09点(UTC)
风速8节,风向
能见度10公里或以上
1500米以下无云,无积雨云

TAF: EPLB 112330Z 1200/1209 01008KT CAVOK

超过4000个机场的气象观测和天气预报(METAR&TAF报告)。

可查询的气象台以黄色和红色小点在地图上表示。

将鼠标移到小点上方,可查看气象台名称。

然后点击查看天气观测和预报。

如需切换地图:点击带黑十字的绿色按钮放大地图;点击带横线的绿色按钮缩小地图;或者点击绿色箭头查看邻近地区的地图。


METAR-TAF: